createdAt,value
2019-03-23T00:00:18.008Z,1022.63
2019-03-23T00:01:18.021Z,1022.59
2019-03-23T00:02:17.996Z,1022.59
2019-03-23T00:03:18.023Z,1022.60
2019-03-23T00:04:17.986Z,1022.58
2019-03-23T00:05:17.960Z,1022.54
2019-03-23T00:06:17.940Z,1022.54
2019-03-23T00:07:17.932Z,1022.53
2019-03-23T00:08:17.932Z,1022.49
2019-03-23T00:09:17.937Z,1022.50
2019-03-23T00:10:17.907Z,1022.45
2019-03-23T00:11:17.887Z,1022.43
2019-03-23T00:12:17.877Z,1022.47
2019-03-23T00:13:17.878Z,1022.46
2019-03-23T00:14:17.910Z,1022.42
2019-03-23T00:15:17.846Z,1022.42
2019-03-23T00:16:17.834Z,1022.44
2019-03-23T00:17:17.823Z,1022.45
2019-03-23T00:18:17.826Z,1022.47
2019-03-23T00:19:17.846Z,1022.45
2019-03-23T00:20:17.812Z,1022.42
2019-03-23T00:21:17.790Z,1022.48
2019-03-23T00:22:17.789Z,1022.49
2019-03-23T00:23:17.760Z,1022.49
2019-03-23T00:24:17.835Z,1022.46
2019-03-23T00:25:17.751Z,1022.50
2019-03-23T00:26:17.737Z,1022.48
2019-03-23T00:27:17.731Z,1022.47
2019-03-23T00:28:17.732Z,1022.48
2019-03-23T00:29:17.706Z,1022.49
2019-03-23T00:30:17.717Z,1022.50
2019-03-23T00:31:17.698Z,1022.46
2019-03-23T00:32:17.692Z,1022.41
2019-03-23T00:33:17.663Z,1022.42
2019-03-23T00:34:17.659Z,1022.46
2019-03-23T00:35:17.647Z,1022.41
2019-03-23T00:36:17.661Z,1022.41
2019-03-23T00:37:17.642Z,1022.36
2019-03-23T00:38:17.612Z,1022.33
2019-03-23T00:39:17.600Z,1022.30
2019-03-23T00:40:17.608Z,1022.30
2019-03-23T00:41:17.592Z,1022.24
2019-03-23T00:42:17.569Z,1022.23
2019-03-23T00:43:17.556Z,1022.20
2019-03-23T00:44:17.561Z,1022.21
2019-03-23T00:45:17.579Z,1022.22
2019-03-23T00:46:17.533Z,1022.20
2019-03-23T00:47:17.525Z,1022.16
2019-03-23T00:48:17.509Z,1022.15
2019-03-23T00:49:17.494Z,1022.15
2019-03-23T00:50:17.481Z,1022.13
2019-03-23T00:51:17.482Z,1022.14
2019-03-23T00:52:17.458Z,1022.09
2019-03-23T00:53:17.469Z,1022.07
2019-03-23T00:54:17.440Z,1022.09
2019-03-23T00:55:17.456Z,1022.08
2019-03-23T00:56:17.439Z,1022.09
2019-03-23T00:57:17.462Z,1022.07
2019-03-23T00:58:17.402Z,1022.04
2019-03-23T00:59:17.389Z,1022.03
2019-03-23T01:00:17.388Z,1021.99
2019-03-23T01:01:17.435Z,1021.96
2019-03-23T01:02:17.368Z,1021.93
2019-03-23T01:03:17.361Z,1021.95
2019-03-23T01:04:17.331Z,1021.95
2019-03-23T01:05:17.352Z,1021.91
2019-03-23T01:06:17.308Z,1021.92
2019-03-23T01:07:17.401Z,1021.89
2019-03-23T01:08:17.315Z,1021.94
2019-03-23T01:09:17.291Z,1021.87
2019-03-23T01:10:17.283Z,1021.95
2019-03-23T01:11:17.253Z,1021.94
2019-03-23T01:12:17.256Z,1021.95
2019-03-23T01:13:17.285Z,1021.89
2019-03-23T01:14:17.222Z,1021.86
2019-03-23T01:15:17.223Z,1021.83
2019-03-23T01:16:17.202Z,1021.83
2019-03-23T01:17:17.210Z,1021.82
2019-03-23T01:18:17.225Z,1021.78
2019-03-23T01:19:17.180Z,1021.75
2019-03-23T01:20:17.191Z,1021.79
2019-03-23T01:21:17.151Z,1021.80
2019-03-23T01:22:17.149Z,1021.78
2019-03-23T01:23:17.167Z,1021.80
2019-03-23T01:24:17.138Z,1021.78
2019-03-23T01:25:17.163Z,1021.78
2019-03-23T01:26:17.110Z,1021.75
2019-03-23T01:27:17.081Z,1021.76
2019-03-23T01:28:17.082Z,1021.77
2019-03-23T01:29:17.074Z,1021.75
2019-03-23T01:30:17.115Z,1021.78
2019-03-23T01:31:17.033Z,1021.79
2019-03-23T01:32:17.037Z,1021.74
2019-03-23T01:33:17.062Z,1021.73
2019-03-23T01:34:17.019Z,1021.70
2019-03-23T01:35:17.020Z,1021.72
2019-03-23T01:36:17.030Z,1021.70
2019-03-23T01:37:16.981Z,1021.69
2019-03-23T01:38:16.976Z,1021.65
2019-03-23T01:39:16.975Z,1021.64
2019-03-23T01:40:16.979Z,1021.62
2019-03-23T01:41:16.943Z,1021.64
2019-03-23T01:42:16.960Z,1021.57
2019-03-23T01:43:16.945Z,1021.57
2019-03-23T01:44:16.932Z,1021.61
2019-03-23T01:45:16.909Z,1021.54
2019-03-23T01:46:16.911Z,1021.52
2019-03-23T01:47:16.910Z,1021.51
2019-03-23T01:48:16.903Z,1021.49
2019-03-23T01:49:16.847Z,1021.48
2019-03-23T01:50:16.840Z,1021.43
2019-03-23T01:51:16.869Z,1021.43
2019-03-23T01:52:16.829Z,1021.41
2019-03-23T01:53:16.825Z,1021.34
2019-03-23T01:54:16.805Z,1021.33
2019-03-23T01:55:16.780Z,1021.37
2019-03-23T01:56:16.810Z,1021.33
2019-03-23T01:57:16.865Z,1021.26
2019-03-23T01:58:16.761Z,1021.29
2019-03-23T01:59:16.758Z,1021.31
2019-03-23T02:00:16.778Z,1021.27
2019-03-23T02:01:16.727Z,1021.25
2019-03-23T02:02:16.715Z,1021.25
2019-03-23T02:03:16.829Z,1021.23
2019-03-23T02:04:16.683Z,1021.25
2019-03-23T02:05:16.682Z,1021.22
2019-03-23T02:06:16.694Z,1021.24
2019-03-23T02:07:16.654Z,1021.23
2019-03-23T02:08:16.647Z,1021.26
2019-03-23T02:09:16.668Z,1021.22
2019-03-23T02:10:16.634Z,1021.22
2019-03-23T02:11:16.636Z,1021.25
2019-03-23T02:12:16.633Z,1021.23
2019-03-23T02:13:16.596Z,1021.25
2019-03-23T02:14:16.607Z,1021.27
2019-03-23T02:15:16.576Z,1021.25
2019-03-23T02:16:16.562Z,1021.26
2019-03-23T02:17:16.562Z,1021.27
2019-03-23T02:18:16.538Z,1021.26
2019-03-23T02:19:16.542Z,1021.26
2019-03-23T02:20:16.529Z,1021.24
2019-03-23T02:21:16.497Z,1021.25
2019-03-23T02:22:16.484Z,1021.18
2019-03-23T02:23:16.470Z,1021.26
2019-03-23T02:24:16.499Z,1021.25
2019-03-23T02:25:16.486Z,1021.22
2019-03-23T02:26:16.452Z,1021.21
2019-03-23T02:27:16.458Z,1021.29
2019-03-23T02:28:16.439Z,1021.27
2019-03-23T02:29:16.494Z,1021.18
2019-03-23T02:30:16.421Z,1021.20
2019-03-23T02:31:16.491Z,1021.26
2019-03-23T02:32:16.479Z,1021.21
2019-03-23T02:33:16.388Z,1021.25
2019-03-23T02:34:16.513Z,1021.22
2019-03-23T02:35:16.370Z,1021.22
2019-03-23T02:36:16.452Z,1021.25
2019-03-23T02:37:27.222Z,1021.21
2019-03-23T02:38:17.378Z,1021.22
2019-03-23T02:39:16.384Z,1021.21
2019-03-23T02:40:16.321Z,1021.23
2019-03-23T02:41:16.296Z,1021.24
2019-03-23T02:42:16.289Z,1021.22
2019-03-23T02:43:16.277Z,1021.24
2019-03-23T02:44:16.260Z,1021.21
2019-03-23T02:45:16.281Z,1021.29
2019-03-23T02:46:16.296Z,1021.24
2019-03-23T02:47:16.224Z,1021.22
2019-03-23T02:48:16.217Z,1021.25
2019-03-23T02:49:16.198Z,1021.21
2019-03-23T02:50:16.198Z,1021.19
2019-03-23T02:51:16.203Z,1021.20
2019-03-23T02:52:16.163Z,1021.19
2019-03-23T02:53:16.155Z,1021.20
2019-03-23T02:54:16.140Z,1021.20
2019-03-23T02:55:16.184Z,1021.16
2019-03-23T02:56:16.157Z,1021.18
2019-03-23T02:57:16.142Z,1021.18
2019-03-23T02:58:16.138Z,1021.20
2019-03-23T02:59:16.095Z,1021.17
2019-03-23T03:00:16.118Z,1021.19
2019-03-23T03:01:16.070Z,1021.18
2019-03-23T03:02:16.062Z,1021.18
2019-03-23T03:03:16.063Z,1021.17
2019-03-23T03:04:16.031Z,1021.09
2019-03-23T03:05:16.050Z,1021.10
2019-03-23T03:06:16.181Z,1021.10
2019-03-23T03:07:16.003Z,1021.11
2019-03-23T03:08:16.082Z,1021.12
2019-03-23T03:09:15.992Z,1021.10
2019-03-23T03:10:15.981Z,1021.08
2019-03-23T03:11:15.960Z,1021.07
2019-03-23T03:12:15.974Z,1021.06
2019-03-23T03:13:15.953Z,1021.10
2019-03-23T03:14:15.932Z,1021.10
2019-03-23T03:15:15.947Z,1021.12
2019-03-23T03:16:15.916Z,1021.13
2019-03-23T03:17:15.934Z,1021.09
2019-03-23T03:18:15.915Z,1021.14
2019-03-23T03:19:15.875Z,1021.15
2019-03-23T03:20:15.867Z,1021.15
2019-03-23T03:21:15.864Z,1021.16
2019-03-23T03:22:15.848Z,1021.18
2019-03-23T03:23:15.845Z,1021.20
2019-03-23T03:24:15.841Z,1021.21
2019-03-23T03:25:15.809Z,1021.18
2019-03-23T03:26:15.809Z,1021.17
2019-03-23T03:27:15.819Z,1021.12
2019-03-23T03:28:15.813Z,1021.16
2019-03-23T03:29:15.783Z,1021.13
2019-03-23T03:30:15.759Z,1021.16
2019-03-23T03:31:15.878Z,1021.18
2019-03-23T03:32:15.772Z,1021.13
2019-03-23T03:33:15.769Z,1021.13
2019-03-23T03:34:15.819Z,1021.11
2019-03-23T03:35:20.647Z,1021.10
2019-03-23T03:36:15.700Z,1021.15
2019-03-23T03:37:15.716Z,1021.15
2019-03-23T03:38:15.735Z,1021.12
2019-03-23T03:39:15.668Z,1021.20
2019-03-23T03:40:15.642Z,1021.14
2019-03-23T03:41:15.727Z,1021.12
2019-03-23T03:42:15.623Z,1021.12
2019-03-23T03:43:15.654Z,1021.13
2019-03-23T03:44:15.777Z,1021.11
2019-03-23T03:45:15.695Z,1021.07
2019-03-23T03:46:15.590Z,1021.12
2019-03-23T03:47:15.602Z,1021.12
2019-03-23T03:48:15.612Z,1021.15
2019-03-23T03:49:15.547Z,1021.15
2019-03-23T03:50:15.682Z,1021.10
2019-03-23T03:51:15.549Z,1021.07
2019-03-23T03:52:15.541Z,1021.06
2019-03-23T03:53:15.561Z,1021.06
2019-03-23T03:54:15.507Z,1021.05
2019-03-23T03:55:15.496Z,1021.07
2019-03-23T03:56:15.508Z,1021.06
2019-03-23T03:57:15.464Z,1021.07
2019-03-23T03:58:15.460Z,1021.04
2019-03-23T03:59:15.594Z,1021.06
2019-03-23T04:00:15.447Z,1021.06
2019-03-23T04:01:15.527Z,1021.10
2019-03-23T04:02:15.417Z,1021.06
2019-03-23T04:03:15.443Z,1021.02
2019-03-23T04:04:15.550Z,1021.05
2019-03-23T04:05:15.425Z,1021.01
2019-03-23T04:06:15.379Z,1021.05
2019-03-23T04:07:15.370Z,1021.02
2019-03-23T04:08:15.376Z,1021.08
2019-03-23T04:09:15.341Z,1021.08
2019-03-23T04:10:15.335Z,1021.04
2019-03-23T04:11:15.364Z,1021.04
2019-03-23T04:12:15.323Z,1021.01
2019-03-23T04:13:15.299Z,1021.05
2019-03-23T04:14:15.295Z,1021.03
2019-03-23T04:15:15.274Z,1021.06
2019-03-23T04:16:15.264Z,1021.05
2019-03-23T04:17:15.291Z,1021.00
2019-03-23T04:18:15.252Z,1021.01
2019-03-23T04:19:15.387Z,1021.00
2019-03-23T04:20:15.218Z,1021.03
2019-03-23T04:21:15.237Z,1020.99
2019-03-23T04:22:15.203Z,1020.98
2019-03-23T04:23:15.206Z,1020.99
2019-03-23T04:24:15.178Z,1020.99
2019-03-23T04:25:15.174Z,1021.00
2019-03-23T04:26:15.179Z,1020.96
2019-03-23T04:27:15.209Z,1021.00
2019-03-23T04:28:15.143Z,1020.98
2019-03-23T04:29:15.134Z,1021.02
2019-03-23T04:30:15.111Z,1021.00
2019-03-23T04:31:15.119Z,1021.01
2019-03-23T04:32:15.113Z,1021.01
2019-03-23T04:33:15.082Z,1020.98
2019-03-23T04:34:15.082Z,1020.96
2019-03-23T04:35:15.058Z,1020.90
2019-03-23T04:36:15.112Z,1020.91
2019-03-23T04:37:15.091Z,1020.93
2019-03-23T04:38:22.586Z,1020.94
2019-03-23T04:39:16.014Z,1020.94
2019-03-23T04:40:15.013Z,1020.90
2019-03-23T04:41:15.018Z,1020.88
2019-03-23T04:42:15.020Z,1020.85
2019-03-23T04:43:14.981Z,1020.85
2019-03-23T04:44:15.023Z,1020.80
2019-03-23T04:45:14.960Z,1020.76
2019-03-23T04:46:14.940Z,1020.78
2019-03-23T04:47:15.005Z,1020.72
2019-03-23T04:48:14.963Z,1020.80
2019-03-23T04:49:14.937Z,1020.75
2019-03-23T04:50:14.899Z,1020.78
2019-03-23T04:51:14.902Z,1020.81
2019-03-23T04:52:14.883Z,1020.83
2019-03-23T04:53:14.873Z,1020.78
2019-03-23T04:54:14.884Z,1020.76
2019-03-23T04:55:14.855Z,1020.77
2019-03-23T04:56:14.825Z,1020.77
2019-03-23T04:57:14.833Z,1020.75
2019-03-23T04:58:14.889Z,1020.75
2019-03-23T04:59:14.804Z,1020.71
2019-03-23T05:00:14.840Z,1020.68
2019-03-23T05:01:14.791Z,1020.70
2019-03-23T05:02:14.761Z,1020.72
2019-03-23T05:03:14.764Z,1020.68
2019-03-23T05:04:14.778Z,1020.70
2019-03-23T05:05:14.761Z,1020.72
2019-03-23T05:06:14.787Z,1020.70
2019-03-23T05:07:14.747Z,1020.74
2019-03-23T05:08:14.725Z,1020.72
2019-03-23T05:09:14.683Z,1020.73
2019-03-23T05:10:14.700Z,1020.71
2019-03-23T05:11:14.674Z,1020.70
2019-03-23T05:12:14.656Z,1020.70
2019-03-23T05:13:14.695Z,1020.71
2019-03-23T05:14:14.641Z,1020.72
2019-03-23T05:15:14.626Z,1020.68
2019-03-23T05:16:14.634Z,1020.64
2019-03-23T05:17:14.608Z,1020.63
2019-03-23T05:18:14.598Z,1020.61
2019-03-23T05:19:14.613Z,1020.63
2019-03-23T05:20:14.564Z,1020.65
2019-03-23T05:21:14.559Z,1020.66
2019-03-23T05:22:14.557Z,1020.62
2019-03-23T05:23:14.554Z,1020.67
2019-03-23T05:24:14.564Z,1020.64
2019-03-23T05:25:14.529Z,1020.61
2019-03-23T05:26:14.494Z,1020.58
2019-03-23T05:27:14.505Z,1020.59
2019-03-23T05:28:14.488Z,1020.62
2019-03-23T05:29:14.501Z,1020.60
2019-03-23T05:30:14.496Z,1020.60
2019-03-23T05:31:14.463Z,1020.61
2019-03-23T05:32:14.450Z,1020.63
2019-03-23T05:33:14.435Z,1020.58
2019-03-23T05:34:14.442Z,1020.61
2019-03-23T05:35:14.415Z,1020.58
2019-03-23T05:36:15.383Z,1020.61
2019-03-23T05:37:14.386Z,1020.61
2019-03-23T05:38:14.383Z,1020.58
2019-03-23T05:39:14.389Z,1020.56
2019-03-23T05:40:14.352Z,1020.51
2019-03-23T05:41:14.343Z,1020.49
2019-03-23T05:42:14.329Z,1020.47
2019-03-23T05:43:14.352Z,1020.48
2019-03-23T05:44:14.334Z,1020.49
2019-03-23T05:45:14.319Z,1020.50
2019-03-23T05:46:14.378Z,1020.52
2019-03-23T05:47:14.289Z,1020.52
2019-03-23T05:48:14.277Z,1020.52
2019-03-23T05:49:14.267Z,1020.50
2019-03-23T05:50:14.269Z,1020.49
2019-03-23T05:51:14.244Z,1020.48
2019-03-23T05:52:14.230Z,1020.46
2019-03-23T05:53:14.226Z,1020.48
2019-03-23T05:54:14.218Z,1020.48
2019-03-23T05:55:14.216Z,1020.44
2019-03-23T05:56:14.219Z,1020.41
2019-03-23T05:57:14.172Z,1020.44
2019-03-23T05:58:14.169Z,1020.43
2019-03-23T05:59:14.158Z,1020.44
2019-03-23T06:00:14.146Z,1020.47
2019-03-23T06:01:14.191Z,1020.42
2019-03-23T06:02:14.118Z,1020.47
2019-03-23T06:03:14.125Z,1020.46
2019-03-23T06:04:14.092Z,1020.45
2019-03-23T06:05:14.081Z,1020.48
2019-03-23T06:06:14.103Z,1020.49
2019-03-23T06:07:14.099Z,1020.51
2019-03-23T06:08:14.069Z,1020.51
2019-03-23T06:09:14.061Z,1020.57
2019-03-23T06:10:14.029Z,1020.54
2019-03-23T06:11:14.015Z,1020.52
2019-03-23T06:12:14.228Z,1020.55
2019-03-23T06:13:14.028Z,1020.55
2019-03-23T06:14:13.996Z,1020.50
2019-03-23T06:15:13.990Z,1020.49
2019-03-23T06:16:13.977Z,1020.50
2019-03-23T06:17:13.956Z,1020.52
2019-03-23T06:18:13.994Z,1020.56
2019-03-23T06:19:13.950Z,1020.56
2019-03-23T06:20:13.932Z,1020.56
2019-03-23T06:21:13.931Z,1020.58
2019-03-23T06:22:13.901Z,1020.57
2019-03-23T06:23:13.894Z,1020.53
2019-03-23T06:24:13.916Z,1020.59
2019-03-23T06:25:13.882Z,1020.56
2019-03-23T06:26:13.874Z,1020.58
2019-03-23T06:27:14.189Z,1020.61
2019-03-23T06:28:13.849Z,1020.59
2019-03-23T06:29:13.867Z,1020.55
2019-03-23T06:30:13.851Z,1020.53
2019-03-23T06:31:13.824Z,1020.52
2019-03-23T06:32:13.847Z,1020.54
2019-03-23T06:33:13.833Z,1020.53
2019-03-23T06:34:13.787Z,1020.53
2019-03-23T06:35:13.809Z,1020.53
2019-03-23T06:36:13.795Z,1020.55
2019-03-23T06:37:13.769Z,1020.51
2019-03-23T06:38:16.204Z,1020.53
2019-03-23T06:39:13.732Z,1020.51
2019-03-23T06:40:13.736Z,1020.55
2019-03-23T06:41:13.730Z,1020.52
2019-03-23T06:42:13.707Z,1020.53
2019-03-23T06:43:13.682Z,1020.59
2019-03-23T06:44:13.672Z,1020.51
2019-03-23T06:45:13.673Z,1020.53
2019-03-23T06:46:13.661Z,1020.55
2019-03-23T06:47:13.676Z,1020.59
2019-03-23T06:48:13.643Z,1020.58
2019-03-23T06:49:13.655Z,1020.56
2019-03-23T06:50:13.647Z,1020.53
2019-03-23T06:51:13.615Z,1020.57
2019-03-23T06:52:13.626Z,1020.50
2019-03-23T06:53:13.597Z,1020.52
2019-03-23T06:54:13.563Z,1020.48
2019-03-23T06:55:13.608Z,1020.49
2019-03-23T06:56:13.567Z,1020.47
2019-03-23T06:57:13.545Z,1020.48
2019-03-23T06:58:13.564Z,1020.47
2019-03-23T06:59:13.535Z,1020.39
2019-03-23T07:00:13.528Z,1020.37
2019-03-23T07:01:13.510Z,1020.37
2019-03-23T07:02:13.511Z,1020.37
2019-03-23T07:03:13.469Z,1020.36
2019-03-23T07:04:13.497Z,1020.36
2019-03-23T07:05:13.479Z,1020.35
2019-03-23T07:06:13.453Z,1020.37
2019-03-23T07:07:13.468Z,1020.32
2019-03-23T07:08:13.422Z,1020.38
2019-03-23T07:09:16.398Z,1020.35
2019-03-23T07:10:13.393Z,1020.42
2019-03-23T07:11:13.423Z,1020.37
2019-03-23T07:12:13.389Z,1020.37
2019-03-23T07:13:13.419Z,1020.38
2019-03-23T07:14:13.420Z,1020.39
2019-03-23T07:15:19.861Z,1020.37
2019-03-23T07:16:14.356Z,1020.38
2019-03-23T07:17:13.329Z,1020.38
2019-03-23T07:18:13.341Z,1020.40
2019-03-23T07:19:13.309Z,1020.35
2019-03-23T07:20:13.304Z,1020.36
2019-03-23T07:21:13.284Z,1020.33
2019-03-23T07:22:13.299Z,1020.35
2019-03-23T07:23:13.267Z,1020.36
2019-03-23T07:24:13.276Z,1020.41
2019-03-23T07:25:13.287Z,1020.41
2019-03-23T07:26:13.233Z,1020.47
2019-03-23T07:27:13.220Z,1020.45
2019-03-23T07:28:13.237Z,1020.43
2019-03-23T07:29:13.197Z,1020.40
2019-03-23T07:30:13.249Z,1020.38
2019-03-23T07:31:13.213Z,1020.43
2019-03-23T07:32:13.189Z,1020.46
2019-03-23T07:33:13.159Z,1020.47
2019-03-23T07:34:13.210Z,1020.47
2019-03-23T07:35:13.160Z,1020.48
2019-03-23T07:36:13.180Z,1020.55
2019-03-23T07:37:13.114Z,1020.59
2019-03-23T07:38:13.211Z,1020.60
2019-03-23T07:39:27.235Z,1020.59
2019-03-23T07:40:14.084Z,1020.63
2019-03-23T07:41:13.068Z,1020.61
2019-03-23T07:42:13.042Z,1020.62
2019-03-23T07:43:13.102Z,1020.57
2019-03-23T07:44:13.037Z,1020.58
2019-03-23T07:45:22.276Z,1020.61
2019-03-23T07:46:13.023Z,1020.59
2019-03-23T07:47:12.995Z,1020.57
2019-03-23T07:48:13.030Z,1020.56
2019-03-23T07:49:12.998Z,1020.54
2019-03-23T07:50:12.976Z,1020.54
2019-03-23T07:51:12.989Z,1020.57
2019-03-23T07:52:12.938Z,1020.55
2019-03-23T07:53:12.939Z,1020.60
2019-03-23T07:54:12.944Z,1020.62
2019-03-23T07:55:12.919Z,1020.57
2019-03-23T07:56:12.936Z,1020.60
2019-03-23T07:57:12.903Z,1020.60
2019-03-23T07:58:12.908Z,1020.60
2019-03-23T07:59:12.875Z,1020.51
2019-03-23T08:00:12.874Z,1020.51
2019-03-23T08:01:12.869Z,1020.47
2019-03-23T08:02:12.830Z,1020.50
2019-03-23T08:03:12.845Z,1020.51
2019-03-23T08:04:12.907Z,1020.51
2019-03-23T08:05:12.916Z,1020.49
2019-03-23T08:06:12.814Z,1020.53
2019-03-23T08:07:12.793Z,1020.44
2019-03-23T08:08:12.773Z,1020.41
2019-03-23T08:09:20.435Z,1020.41
2019-03-23T08:10:13.819Z,1020.39
2019-03-23T08:11:12.795Z,1020.39
2019-03-23T08:12:12.784Z,1020.40
2019-03-23T08:13:12.781Z,1020.41
2019-03-23T08:14:12.753Z,1020.43
2019-03-23T08:15:12.780Z,1020.42
2019-03-23T08:16:12.735Z,1020.48
2019-03-23T08:17:12.684Z,1020.45
2019-03-23T08:18:12.699Z,1020.41
2019-03-23T08:19:12.707Z,1020.42
2019-03-23T08:20:12.705Z,1020.40
2019-03-23T08:21:12.656Z,1020.35
2019-03-23T08:22:12.634Z,1020.36
2019-03-23T08:23:12.616Z,1020.36
2019-03-23T08:24:12.618Z,1020.36
2019-03-23T08:25:12.607Z,1020.34
2019-03-23T08:26:12.594Z,1020.35
2019-03-23T08:27:12.577Z,1020.39
2019-03-23T08:28:12.608Z,1020.41
2019-03-23T08:29:12.553Z,1020.40
2019-03-23T08:30:12.564Z,1020.38
2019-03-23T08:31:12.557Z,1020.34
2019-03-23T08:32:12.533Z,1020.33
2019-03-23T08:33:12.508Z,1020.36
2019-03-23T08:34:12.505Z,1020.33
2019-03-23T08:35:13.219Z,1020.32
2019-03-23T08:36:12.524Z,1020.29
2019-03-23T08:37:12.504Z,1020.29
2019-03-23T08:38:12.479Z,1020.28
2019-03-23T08:39:12.476Z,1020.27
2019-03-23T08:40:12.488Z,1020.26
2019-03-23T08:41:12.482Z,1020.23
2019-03-23T08:42:13.221Z,1020.27
2019-03-23T08:43:12.443Z,1020.25
2019-03-23T08:44:13.223Z,1020.20
2019-03-23T08:45:12.396Z,1020.17
2019-03-23T08:46:12.443Z,1020.22
2019-03-23T08:47:12.405Z,1020.19
2019-03-23T08:48:12.393Z,1020.20
2019-03-23T08:49:12.330Z,1020.22
2019-03-23T08:50:13.236Z,1020.23
2019-03-23T08:51:12.366Z,1020.23
2019-03-23T08:52:22.267Z,1020.26
2019-03-23T08:53:13.778Z,1020.24
2019-03-23T08:54:12.604Z,1020.17
2019-03-23T08:55:12.273Z,1020.23
2019-03-23T08:56:21.359Z,1020.25
2019-03-23T08:57:13.331Z,1020.22
2019-03-23T08:58:13.349Z,1020.26
2019-03-23T08:59:12.233Z,1020.23
2019-03-23T09:00:13.008Z,1020.24
2019-03-23T09:01:13.882Z,1020.24
2019-03-23T09:02:12.290Z,1020.23
2019-03-23T09:03:12.191Z,1020.25
2019-03-23T09:04:12.212Z,1020.24
2019-03-23T09:05:13.297Z,1020.23
2019-03-23T09:06:13.296Z,1020.28
2019-03-23T09:07:12.189Z,1020.29
2019-03-23T09:08:12.872Z,1020.26
2019-03-23T09:09:12.172Z,1020.29
2019-03-23T09:10:12.138Z,1020.31
2019-03-23T09:11:20.391Z,1020.30
2019-03-23T09:12:13.798Z,1020.30
2019-03-23T09:13:12.118Z,1020.34
2019-03-23T09:14:12.075Z,1020.27
2019-03-23T09:15:12.081Z,1020.28
2019-03-23T09:16:12.062Z,1020.27
2019-03-23T09:17:12.073Z,1020.29
2019-03-23T09:18:12.031Z,1020.30
2019-03-23T09:19:12.062Z,1020.31
2019-03-23T09:20:12.832Z,1020.35
2019-03-23T09:21:12.986Z,1020.29
2019-03-23T09:22:11.994Z,1020.30
2019-03-23T09:23:11.977Z,1020.35
2019-03-23T09:24:12.002Z,1020.38
2019-03-23T09:25:11.967Z,1020.39
2019-03-23T09:26:13.662Z,1020.43
2019-03-23T09:27:12.734Z,1020.48
2019-03-23T09:28:11.940Z,1020.49
2019-03-23T09:29:11.971Z,1020.48
2019-03-23T09:30:11.898Z,1020.53
2019-03-23T09:31:11.934Z,1020.50
2019-03-23T09:32:11.901Z,1020.52
2019-03-23T09:33:11.914Z,1020.51
2019-03-23T09:34:11.912Z,1020.49
2019-03-23T09:35:11.884Z,1020.47
2019-03-23T09:36:11.859Z,1020.45
2019-03-23T09:37:11.851Z,1020.49
2019-03-23T09:38:11.813Z,1020.50
2019-03-23T09:39:11.837Z,1020.53
2019-03-23T09:40:11.801Z,1020.54
2019-03-23T09:41:11.782Z,1020.56
2019-03-23T09:42:11.795Z,1020.52
2019-03-23T09:43:11.762Z,1020.58
2019-03-23T09:44:11.798Z,1020.59
2019-03-23T09:45:14.080Z,1020.57
2019-03-23T09:46:11.779Z,1020.61
2019-03-23T09:47:11.760Z,1020.61
2019-03-23T09:48:11.720Z,1020.63
2019-03-23T09:49:11.705Z,1020.63
2019-03-23T09:50:11.700Z,1020.65
2019-03-23T09:51:11.707Z,1020.59
2019-03-23T09:52:11.695Z,1020.62
2019-03-23T09:53:11.662Z,1020.64
2019-03-23T09:54:11.679Z,1020.62
2019-03-23T09:55:11.640Z,1020.62
2019-03-23T09:56:11.651Z,1020.57
2019-03-23T09:57:11.630Z,1020.59
2019-03-23T09:58:11.630Z,1020.58
2019-03-23T09:59:11.625Z,1020.63
2019-03-23T10:00:11.572Z,1020.64
2019-03-23T10:01:11.603Z,1020.60
2019-03-23T10:02:11.584Z,1020.61
2019-03-23T10:03:11.551Z,1020.66
2019-03-23T10:04:11.543Z,1020.64
2019-03-23T10:05:11.554Z,1020.66
2019-03-23T10:06:11.544Z,1020.69
2019-03-23T10:07:11.510Z,1020.63
2019-03-23T10:08:11.515Z,1020.63
2019-03-23T10:09:11.484Z,1020.63
2019-03-23T10:10:21.260Z,1020.61
2019-03-23T10:11:12.464Z,1020.63
2019-03-23T10:12:11.455Z,1020.64
2019-03-23T10:13:11.444Z,1020.65
2019-03-23T10:14:11.426Z,1020.62
2019-03-23T10:15:11.426Z,1020.62
2019-03-23T10:16:11.433Z,1020.61
2019-03-23T10:17:11.410Z,1020.59
2019-03-23T10:18:11.416Z,1020.60
2019-03-23T10:19:11.392Z,1020.56
2019-03-23T10:20:11.396Z,1020.56
2019-03-23T10:21:11.347Z,1020.55
2019-03-23T10:22:11.352Z,1020.51
2019-03-23T10:23:11.332Z,1020.56
2019-03-23T10:24:11.352Z,1020.58
2019-03-23T10:25:11.333Z,1020.53
2019-03-23T10:26:11.346Z,1020.49
2019-03-23T10:27:11.329Z,1020.56
2019-03-23T10:28:11.345Z,1020.55
2019-03-23T10:29:11.292Z,1020.50
2019-03-23T10:30:11.314Z,1020.52
2019-03-23T10:31:11.254Z,1020.49
2019-03-23T10:32:11.239Z,1020.52
2019-03-23T10:33:11.247Z,1020.50
2019-03-23T10:34:11.227Z,1020.49
2019-03-23T10:35:11.220Z,1020.50
2019-03-23T10:36:12.276Z,1020.48
2019-03-23T10:37:11.188Z,1020.49
2019-03-23T10:38:11.190Z,1020.50
2019-03-23T10:39:11.826Z,1020.54
2019-03-23T10:40:11.829Z,1020.57
2019-03-23T10:41:11.200Z,1020.57
2019-03-23T10:42:11.205Z,1020.57
2019-03-23T10:43:11.134Z,1020.59
2019-03-23T10:44:11.185Z,1020.65
2019-03-23T10:45:11.116Z,1020.61
2019-03-23T10:46:11.116Z,1020.62
2019-03-23T10:47:11.115Z,1020.62
2019-03-23T10:48:12.214Z,1020.61
2019-03-23T10:49:11.101Z,1020.60
2019-03-23T10:50:11.109Z,1020.62
2019-03-23T10:51:11.039Z,1020.63
2019-03-23T10:52:11.024Z,1020.63
2019-03-23T10:53:11.010Z,1020.63
2019-03-23T10:54:11.832Z,1020.62
2019-03-23T10:55:11.031Z,1020.64
2019-03-23T10:56:11.005Z,1020.64
2019-03-23T10:57:10.981Z,1020.61
2019-03-23T10:58:10.961Z,1020.59
2019-03-23T10:59:10.947Z,1020.60
2019-03-23T11:00:10.930Z,1020.64
2019-03-23T11:01:10.996Z,1020.59
2019-03-23T11:02:10.934Z,1020.62
2019-03-23T11:03:10.916Z,1020.67
2019-03-23T11:04:10.959Z,1020.66
2019-03-23T11:05:10.877Z,1020.72
2019-03-23T11:06:10.913Z,1020.72
2019-03-23T11:07:10.911Z,1020.77
2019-03-23T11:08:10.885Z,1020.71
2019-03-23T11:09:10.884Z,1020.72
2019-03-23T11:10:10.832Z,1020.72
2019-03-23T11:11:10.929Z,1020.70
2019-03-23T11:12:10.829Z,1020.66
2019-03-23T11:13:10.839Z,1020.73
2019-03-23T11:14:10.866Z,1020.68
2019-03-23T11:15:10.794Z,1020.73
2019-03-23T11:16:10.767Z,1020.75
2019-03-23T11:17:10.823Z,1020.73
2019-03-23T11:18:10.752Z,1020.75
2019-03-23T11:19:13.584Z,1020.76
2019-03-23T11:20:10.755Z,1020.77
2019-03-23T11:21:10.721Z,1020.78
2019-03-23T11:22:10.797Z,1020.79
2019-03-23T11:23:10.689Z,1020.81
2019-03-23T11:24:10.685Z,1020.83
2019-03-23T11:25:10.716Z,1020.83
2019-03-23T11:26:10.669Z,1020.85
2019-03-23T11:27:10.671Z,1020.83
2019-03-23T11:28:10.641Z,1020.87
2019-03-23T11:29:10.647Z,1020.87
2019-03-23T11:30:10.624Z,1020.87
2019-03-23T11:31:10.609Z,1020.95
2019-03-23T11:32:10.674Z,1021.00
2019-03-23T11:33:10.646Z,1021.05
2019-03-23T11:34:17.579Z,1021.04
2019-03-23T11:35:11.647Z,1021.11
2019-03-23T11:36:10.552Z,1021.13
2019-03-23T11:37:10.662Z,1021.17
2019-03-23T11:38:10.558Z,1021.19
2019-03-23T11:39:10.550Z,1021.19
2019-03-23T11:40:10.515Z,1021.12
2019-03-23T11:41:10.493Z,1021.21
2019-03-23T11:42:10.485Z,1021.18
2019-03-23T11:43:10.507Z,1021.23
2019-03-23T11:44:10.510Z,1021.21
2019-03-23T11:45:10.461Z,1021.21
2019-03-23T11:46:10.452Z,1021.20
2019-03-23T11:47:10.427Z,1021.19
2019-03-23T11:48:10.462Z,1021.24
2019-03-23T11:49:10.462Z,1021.31
2019-03-23T11:50:10.388Z,1021.33
2019-03-23T11:51:10.501Z,1021.37
2019-03-23T11:52:10.365Z,1021.33
2019-03-23T11:53:10.378Z,1021.25
2019-03-23T11:54:10.369Z,1021.27
2019-03-23T11:55:10.352Z,1021.29
2019-03-23T11:56:10.343Z,1021.26
2019-03-23T11:57:10.328Z,1021.26
2019-03-23T11:58:10.350Z,1021.30
2019-03-23T11:59:10.347Z,1021.30
2019-03-23T12:00:10.322Z,1021.31
2019-03-23T12:01:10.278Z,1021.32
2019-03-23T12:02:10.271Z,1021.38
2019-03-23T12:03:10.255Z,1021.40
2019-03-23T12:04:10.261Z,1021.44
2019-03-23T12:05:10.294Z,1021.46